Time;durP1;ratioP1;P1;durP2;ratioP2;P2;SDS_P1;SDS_P2;PMS_P1;PMS_P2;Temp;Humidity;BMP_temperature;BMP_pressure;BME280_temperature;BME280_humidity;BME280_pressure;Samples;Min_cycle;Max_cycle;Signal;HPM_P1;HPM_P2
2023/09/10 00:02:04;;;;;;;4.20;3.80;;;;;;;;;;6094996;23;20006;-78
2023/09/10 00:04:32;;;;;;;3.67;3.38;;;;;;;;;;6095696;23;19999;-73
2023/09/10 00:06:59;;;;;;;4.95;3.92;;;;;;;;;;6095174;23;20002;-73
2023/09/10 00:09:25;;;;;;;3.70;3.40;;;;;;;;;;6095399;23;20024;-74
2023/09/10 00:11:52;;;;;;;5.05;4.20;;;;;;;;;;6095313;23;20088;-74
2023/09/10 00:14:18;;;;;;;3.67;3.38;;;;;;;;;;6095301;23;20009;-74
2023/09/10 00:16:45;;;;;;;3.67;3.38;;;;;;;;;;6095094;23;20053;-78
2023/09/10 00:19:12;;;;;;;2.90;2.70;;;;;;;;;;6095329;23;20081;-78
2023/09/10 00:21:39;;;;;;;3.33;3.03;;;;;;;;;;6095418;23;19998;-78
2023/09/10 00:24:06;;;;;;;3.45;3.15;;;;;;;;;;6095375;23;20384;-78
2023/09/10 00:26:32;;;;;;;3.33;3.03;;;;;;;;;;6095407;23;20031;-78
2023/09/10 00:28:59;;;;;;;4.35;3.33;;;;;;;;;;6095284;23;20012;-78
2023/09/10 00:31:25;;;;;;;3.25;3.05;;;;;;;;;;6104549;23;20019;-78
2023/09/10 00:33:52;;;;;;;3.38;3.17;;;;;;;;;;6105313;23;19999;-74
2023/09/10 00:36:18;;;;;;;3.40;3.10;;;;;;;;;;6104561;23;20066;-74
2023/09/10 00:38:43;;;;;;;3.33;3.13;;;;;;;;;;6104804;23;20434;-74
2023/09/10 00:41:09;;;;;;;4.85;3.90;;;;;;;;;;6104742;23;20069;-74
2023/09/10 00:43:35;;;;;;;4.07;3.30;;;;;;;;;;6104816;23;20008;-74
2023/09/10 00:46:02;;;;;;;3.50;3.20;;;30.00;65.80;;;;;;6104805;23;20459;-74
2023/09/10 00:48:28;;;;;;;3.78;3.10;;;;;;;;;;6104748;23;20005;-74
2023/09/10 00:50:55;;;;;;;3.58;3.20;;;;;;;;;;6104666;23;20017;-74
2023/09/10 00:53:22;;;;;;;3.95;3.30;;;29.90;64.50;;;;;;6104731;23;20402;-74
2023/09/10 00:55:48;;;;;;;3.45;3.20;;;;;;;;;;6095070;23;20026;-74
2023/09/10 00:58:14;;;;;;;3.97;3.10;;;;;;;;;;6104759;23;20006;-74
2023/09/10 01:00:44;;;;;;;3.55;3.10;;;;;;;;;;6105149;23;19995;-78
2023/09/10 01:03:10;;;;;;;4.10;3.78;;;;;;;;;;6069797;23;20010;-78
2023/09/10 01:05:36;;;;;;;3.90;3.40;;;;;;;;;;6104623;23;19998;-78
2023/09/10 01:08:03;;;;;;;3.40;3.10;;;;;;;;;;6104751;23;20481;-78
2023/09/10 01:10:39;;;;;;;3.40;3.10;;;29.90;66.00;;;;;;6093223;23;20098;-78
2023/09/10 01:13:20;;;;;;;3.75;3.42;;;29.90;60.40;;;;;;6105742;23;19999;-74
2023/09/10 01:15:57;;;;;;;3.65;3.35;;;29.90;60.40;;;;;;6106525;23;20002;-74
2023/09/10 01:18:31;;;;;;;2.90;2.70;;;29.90;66.10;;;;;;6096693;23;20707;-74
2023/09/10 01:21:28;;;;;;;3.15;2.92;;;29.90;60.60;;;;;;6106627;23;20025;-74
2023/09/10 01:24:36;;;;;;;3.35;3.10;;;29.90;60.40;;;;;;6106695;23;19998;-74
2023/09/10 01:27:02;;;;;;;3.65;3.28;;;;;;;;;;6106611;23;20002;-74
2023/09/10 01:29:28;;;;;;;3.45;3.15;;;;;;;;;;6106997;23;20330;-78
2023/09/10 01:31:58;;;;;;;3.95;3.63;;;;;;;;;;6094859;23;20015;-78
2023/09/10 01:34:26;;;;;;;3.50;3.00;;;;;;;;;;6094885;23;20010;-78
2023/09/10 01:37:01;;;;;;;3.17;2.88;;;29.90;66.40;;;;;;6106122;23;20097;-77
2023/09/10 01:39:36;;;;;;;3.28;2.95;;;29.80;66.50;;;;;;6106156;23;20010;-78
2023/09/10 01:42:06;;;;;;;3.28;2.95;;;;;;;;;;6097002;23;20006;-78
2023/09/10 01:44:34;;;;;;;4.03;3.47;;;29.20;65.90;;;;;;6096772;23;20002;-78
2023/09/10 01:47:00;;;;;;;3.63;3.33;;;29.70;63.50;;;;;;6104787;23;20318;-79
2023/09/10 01:49:27;;;;;;;3.22;3.03;;;;;;;;;;6106206;23;20002;-78
2023/09/10 01:51:53;;;;;;;3.42;3.13;;;;;;;;;;6096293;23;20011;-78
2023/09/10 01:54:20;;;;;;;2.80;2.60;;;;;;;;;;6096145;23;20009;-77
2023/09/10 01:56:46;;;;;;;3.80;3.40;;;;;;;;;;6096575;23;20013;-77
2023/09/10 01:59:13;;;;;;;3.45;3.22;;;;;;;;;;6097187;23;20021;-74
2023/09/10 02:01:39;;;;;;;4.05;3.25;;;;;;;;;;6096267;23;20010;-74
2023/09/10 02:04:06;;;;;;;3.40;2.92;;;;;;;;;;6096548;23;20383;-74
2023/09/10 02:06:32;;;;;;;2.97;2.78;;;;;;;;;;6096456;23;20029;-74
2023/09/10 02:08:59;;;;;;;3.60;3.30;;;;;;;;;;6096733;23;20002;-76
2023/09/10 02:11:27;;;;;;;3.50;3.20;;;;;;;;;;6096429;23;20018;-77
2023/09/10 02:13:54;;;;;;;3.45;3.17;;;;;;;;;;6096194;23;20006;-77
2023/09/10 02:16:20;;;;;;;3.67;2.92;;;;;;;;;;6096126;23;20077;-77
2023/09/10 02:18:47;;;;;;;3.20;3.00;;;;;;;;;;6096387;23;20068;-77
2023/09/10 02:21:13;;;;;;;3.50;3.20;;;;;;;;;;6096066;23;20386;-78
2023/09/10 02:23:43;;;;;;;3.55;3.25;;;29.60;66.60;;;;;;6095733;23;20003;-78
2023/09/10 02:26:10;;;;;;;2.95;2.75;;;;;;;;;;6096381;23;20009;-78
2023/09/10 02:28:36;;;;;;;2.67;2.50;;;;;;;;;;6096250;23;20002;-74
2023/09/10 02:31:06;;;;;;;3.20;3.00;;;29.60;61.30;;;;;;6095849;23;20093;-74
2023/09/10 02:33:33;;;;;;;3.08;2.88;;;;;;;;;;6095853;23;19995;-74
2023/09/10 02:36:00;;;;;;;3.13;2.92;;;;;;;;;;6095539;23;20014;-74
2023/09/10 02:38:27;;;;;;;3.47;3.15;;;;;;;;;;6094272;23;20002;-74
2023/09/10 02:40:55;;;;;;;3.15;2.85;;;29.60;66.70;;;;;;6096155;23;20338;-74
2023/09/10 02:43:21;;;;;;;3.13;2.92;;;;;;;;;;6096268;23;20022;-74
2023/09/10 02:45:47;;;;;;;3.30;3.00;;;;;;;;;;6106071;23;20024;-74
2023/09/10 02:48:13;;;;;;;3.42;3.13;;;;;;;;;;6105673;23;20072;-74
2023/09/10 02:50:39;;;;;;;3.28;2.95;;;;;;;;;;6105455;23;20014;-74
2023/09/10 02:53:05;;;;;;;3.38;2.95;;;;;;;;;;6105549;23;19998;-73
2023/09/10 02:55:31;;;;;;;3.13;2.90;;;;;;;;;;6105544;23;20002;-73
2023/09/10 02:57:57;;;;;;;3.00;2.80;;;;;;;;;;6105349;23;20324;-78
2023/09/10 03:00:25;;;;;;;3.45;3.15;;;;;;;;;;6070236;23;20003;-78
2023/09/10 03:02:55;;;;;;;3.00;2.80;;;;;;;;;;6105458;23;20026;-77
2023/09/10 03:05:21;;;;;;;3.13;2.83;;;;;;;;;;6105631;23;19999;-77
2023/09/10 03:07:47;;;;;;;3.15;2.95;;;;;;;;;;6105266;23;20014;-77
2023/09/10 03:10:13;;;;;;;3.33;3.03;;;;;;;;;;6105272;23;20130;-77
2023/09/10 03:12:39;;;;;;;3.40;3.10;;;;;;;;;;6105825;23;20001;-78
2023/09/10 03:15:06;;;;;;;3.58;3.10;;;;;;;;;;6105288;23;19999;-79
2023/09/10 03:17:32;;;;;;;3.25;2.95;;;;;;;;;;6105378;23;20525;-79
2023/09/10 03:19:58;;;;;;;3.20;2.90;;;;;;;;;;6093885;23;20460;-78
2023/09/10 03:22:24;;;;;;;2.75;2.55;;;;;;;;;;6105266;23;19998;-79
2023/09/10 03:24:50;;;;;;;3.00;2.80;;;;;;;;;;6105266;23;20006;-74
2023/09/10 03:27:16;;;;;;;3.40;2.90;;;;;;;;;;6105294;23;20404;-73
2023/09/10 03:29:42;;;;;;;3.58;3.28;;;;;;;;;;6105234;23;20003;-73
2023/09/10 03:32:08;;;;;;;3.88;3.47;;;;;;;;;;6104996;23;20089;-74
2023/09/10 03:34:34;;;;;;;3.20;3.00;;;;;;;;;;6105092;23;20021;-74
2023/09/10 03:37:03;;;;;;;2.78;2.58;;;;;;;;;;6104762;23;20010;-74
2023/09/10 03:39:29;;;;;;;2.72;2.53;;;;;;;;;;6105255;23;20422;-74
2023/09/10 03:41:55;;;;;;;3.10;2.90;;;;;;;;;;6105714;23;20022;-78
2023/09/10 03:44:21;;;;;;;3.00;2.80;;;;;;;;;;6104085;23;20006;-78
2023/09/10 03:46:47;;;;;;;3.10;2.78;;;;;;;;;;6105250;23;20070;-78
2023/09/10 03:49:13;;;;;;;2.85;2.65;;;;;;;;;;6105320;23;19998;-78
2023/09/10 03:51:40;;;;;;;3.63;2.97;;;;;;;;;;6105195;23;20065;-79
2023/09/10 03:54:11;;;;;;;3.30;3.00;;;;;;;;;;6105341;23;20029;-79
2023/09/10 03:56:39;;;;;;;3.50;3.20;;;;;;;;;;6095856;23;20075;-78
2023/09/10 03:59:06;;;;;;;2.95;2.75;;;29.10;66.80;;;;;;6094095;23;20112;-79
2023/09/10 04:01:33;;;;;;;3.28;2.92;;;;;;;;;;6105122;23;20068;-78
2023/09/10 04:03:59;;;;;;;3.05;2.75;;;;;;;;;;6104941;23;20427;-78
2023/09/10 04:06:25;;;;;;;3.20;2.90;;;;;;;;;;6095565;23;20447;-78
2023/09/10 04:08:51;;;;;;;3.33;3.00;;;;;;;;;;6093752;23;20002;-78
2023/09/10 04:11:17;;;;;;;3.03;2.72;;;;;;;;;;6105466;23;20033;-74
2023/09/10 04:13:43;;;;;;;3.08;2.88;;;;;;;;;;6105109;23;20135;-74
2023/09/10 04:16:09;;;;;;;3.20;3.00;;;;;;;;;;6104901;23;20479;-74
2023/09/10 04:18:35;;;;;;;3.20;3.00;;;;;;;;;;6105029;23;19995;-74
2023/09/10 04:21:05;;;;;;;3.42;3.13;;;;;;;;;;6105009;23;20005;-76
2023/09/10 04:23:31;;;;;;;3.20;2.90;;;;;;;;;;6093742;23;20390;-74
2023/09/10 04:25:57;;;;;;;3.35;2.85;;;;;;;;;;6104920;23;20366;-74
2023/09/10 04:28:23;;;;;;;2.92;2.72;;;;;;;;;;6105018;23;20402;-74
2023/09/10 04:30:49;;;;;;;3.10;2.83;;;;;;;;;;6104835;23;20042;-74
2023/09/10 04:33:18;;;;;;;3.15;2.85;;;;;;;;;;6104789;23;20002;-74
2023/09/10 04:35:49;;;;;;;2.70;2.50;;;29.00;67.20;;;;;;6104774;23;20017;-75
2023/09/10 04:38:15;;;;;;;2.60;2.40;;;;;;;;;;6095680;23;20002;-74
2023/09/10 04:40:42;;;;;;;3.47;3.17;;;;;;;;;;6095519;23;20010;-74
2023/09/10 04:43:08;;;;;;;2.95;2.75;;;;;;;;;;6104870;23;20018;-74
2023/09/10 04:45:35;;;;;;;3.30;3.05;;;;;;;;;;6104852;23;20319;-74
2023/09/10 04:48:04;;;;;;;3.00;2.80;;;;;;;;;;6097075;23;20014;-74
2023/09/10 04:50:32;;;;;;;2.60;2.40;;;;;;;;;;6106920;23;20146;-78
2023/09/10 04:53:01;;;;;;;3.15;2.95;;;;;;;;;;6096923;23;20005;-78
2023/09/10 04:55:27;;;;;;;2.92;2.72;;;;;;;;;;6095147;23;20465;-78
2023/09/10 04:57:53;;;;;;;2.97;2.78;;;;;;;;;;6106701;23;20049;-78
2023/09/10 05:00:19;;;;;;;3.90;2.70;;;;;;;;;;6106788;23;20461;-79
2023/09/10 05:02:45;;;;;;;3.13;2.85;;;;;;;;;;6106799;23;20303;-78
2023/09/10 05:05:11;;;;;;;3.50;3.20;;;;;;;;;;6106777;23;20002;-78
2023/09/10 05:07:37;;;;;;;3.15;2.92;;;;;;;;;;6107192;23;19999;-74
2023/09/10 05:10:04;;;;;;;3.35;3.05;;;;;;;;;;6106585;23;20308;-74
2023/09/10 05:12:30;;;;;;;2.72;2.53;;;;;;;;;;6106623;23;20010;-74
2023/09/10 05:14:56;;;;;;;3.20;2.90;;;;;;;;;;6106745;23;20002;-74
2023/09/10 05:17:21;;;;;;;2.75;2.55;;;;;;;;;;6106482;23;20583;-74
2023/09/10 05:19:48;;;;;;;3.03;2.83;;;;;;;;;;6106643;23;20029;-74
2023/09/10 05:22:14;;;;;;;3.20;3.00;;;;;;;;;;6106551;23;19998;-75
2023/09/10 05:24:40;;;;;;;2.95;2.65;;;;;;;;;;6106511;23;20541;-74
2023/09/10 05:27:06;;;;;;;2.80;2.60;;;;;;;;;;6095033;23;20607;-74
2023/09/10 05:29:32;;;;;;;3.22;2.95;;;;;;;;;;6106298;23;20003;-75
2023/09/10 05:31:58;;;;;;;2.97;2.78;;;;;;;;;;6106281;23;20010;-75
2023/09/10 05:34:24;;;;;;;2.83;2.67;;;;;;;;;;6106158;23;20622;-74
2023/09/10 05:36:50;;;;;;;3.30;3.10;;;;;;;;;;6106783;23;20058;-78
2023/09/10 05:39:16;;;;;;;2.97;2.78;;;;;;;;;;6095049;23;20041;-78
2023/09/10 05:41:42;;;;;;;2.88;2.67;;;;;;;;;;6071078;23;20029;-78
2023/09/10 05:44:08;;;;;;;3.38;3.08;;;;;;;;;;6106288;23;20044;-78
2023/09/10 05:46:34;;;;;;;3.63;3.17;;;;;;;;;;6106185;23;20027;-78
2023/09/10 05:49:00;;;;;;;2.92;2.72;;;;;;;;;;6106456;23;19999;-74
2023/09/10 05:51:26;;;;;;;2.80;2.60;;;;;;;;;;6106134;23;20465;-74
2023/09/10 05:53:53;;;;;;;3.20;3.00;;;;;;;;;;6106117;23;20002;-74
2023/09/10 05:56:19;;;;;;;2.97;2.78;;;;;;;;;;6106090;23;19998;-74
2023/09/10 05:58:45;;;;;;;2.70;2.50;;;;;;;;;;6105590;23;20010;-74
2023/09/10 06:01:11;;;;;;;3.20;3.00;;;;;;;;;;6096628;23;20006;-74
2023/09/10 06:03:37;;;;;;;2.83;2.63;;;;;;;;;;6106571;23;20002;-77
2023/09/10 06:06:03;;;;;;;2.97;2.78;;;;;;;;;;6106026;23;19998;-78
2023/09/10 06:08:30;;;;;;;2.90;2.70;;;;;;;;;;6106180;23;20041;-78
2023/09/10 06:10:56;;;;;;;2.97;2.78;;;;;;;;;;6105962;23;20078;-78
2023/09/10 06:13:22;;;;;;;3.05;2.83;;;;;;;;;;6105929;23;20430;-78
2023/09/10 06:15:48;;;;;;;3.38;3.08;;;;;;;;;;6106061;23;20007;-77
2023/09/10 06:18:14;;;;;;;3.58;3.28;;;;;;;;;;6106585;23;20005;-78
2023/09/10 06:20:40;;;;;;;3.83;3.53;;;;;;;;;;6106036;23;20081;-77
2023/09/10 06:23:06;;;;;;;3.50;3.20;;;;;;;;;;6106172;23;20437;-78
2023/09/10 06:25:33;;;;;;;3.42;3.13;;;;;;;;;;6105988;23;19998;-78
2023/09/10 06:27:59;;;;;;;3.10;2.90;;;;;;;;;;6106141;23;20022;-78
2023/09/10 06:30:25;;;;;;;3.13;2.92;;;;;;;;;;6094520;23;20045;-78
2023/09/10 06:32:51;;;;;;;3.40;3.10;;;;;;;;;;6106424;23;20284;-75
2023/09/10 06:35:17;;;;;;;3.63;3.33;;;;;;;;;;6105578;23;20473;-75
2023/09/10 06:37:43;;;;;;;4.60;3.22;;;;;;;;;;6106226;23;20026;-75
2023/09/10 06:40:09;;;;;;;3.70;3.40;;;;;;;;;;6105702;23;20092;-75
2023/09/10 06:42:35;;;;;;;3.45;3.15;;;;;;;;;;6105588;23;20466;-75
2023/09/10 06:45:01;;;;;;;3.55;3.25;;;;;;;;;;6105814;23;19998;-75
2023/09/10 06:47:27;;;;;;;3.70;3.40;;;;;;;;;;6106061;23;19994;-76
2023/09/10 06:49:54;;;;;;;3.42;3.10;;;;;;;;;;6106162;23;20338;-75
2023/09/10 06:52:20;;;;;;;3.60;3.30;;;;;;;;;;6105862;23;20077;-74
2023/09/10 06:54:46;;;;;;;3.25;3.05;;;28.80;67.70;;;;;;6105537;23;20003;-75
2023/09/10 06:57:13;;;;;;;3.60;3.30;;;;;;;;;;6105633;23;20026;-74
2023/09/10 06:59:39;;;;;;;3.50;3.20;;;;;;;;;;6105536;23;20006;-74
2023/09/10 07:02:05;;;;;;;3.35;3.13;;;;;;;;;;6105910;23;20033;-81
2023/09/10 07:04:31;;;;;;;3.70;3.40;;;;;;;;;;6105665;23;20048;-80
2023/09/10 07:06:58;;;;;;;3.85;3.55;;;;;;;;;;6105459;23;20045;-75
2023/09/10 07:09:24;;;;;;;3.33;3.03;;;;;;;;;;6093979;23;19999;-74
2023/09/10 07:11:54;;;;;;;3.40;3.20;;;;;;;;;;6104902;23;20063;-76
2023/09/10 07:14:21;;;;;;;3.90;3.60;;;28.50;66.80;;;;;;6100285;23;20009;-75
2023/09/10 07:16:48;;;;;;;4.28;3.50;;;;;;;;;;6105236;23;20016;-75
2023/09/10 07:19:15;;;;;;;3.92;3.63;;;28.50;67.30;;;;;;6105346;23;20062;-74
2023/09/10 07:21:40;;;;;;;4.20;3.80;;;;;;;;;;6105345;23;20331;-74
2023/09/10 07:24:08;;;;;;;4.03;3.72;;;;;;;;;;6105211;23;19998;-75
2023/09/10 07:26:34;;;;;;;4.78;4.35;;;;;;;;;;6105160;23;20022;-74
2023/09/10 07:29:00;;;;;;;4.20;3.80;;;;;;;;;;6105083;23;19999;-75
2023/09/10 07:31:27;;;;;;;5.28;4.72;;;;;;;;;;6096351;23;20330;-78
2023/09/10 07:33:53;;;;;;;4.72;4.32;;;;;;;;;;6095354;23;20007;-79
2023/09/10 07:36:19;;;;;;;5.45;4.80;;;;;;;;;;6095273;23;20400;-78
2023/09/10 07:38:46;;;;;;;5.57;5.07;;;;;;;;;;6095042;23;20024;-75
2023/09/10 07:41:13;;;;;;;6.38;5.28;;;;;;;;;;6095701;23;20021;-75
2023/09/10 07:43:39;;;;;;;5.75;5.25;;;;;;;;;;6095747;23;20026;-77
2023/09/10 07:46:05;;;;;;;5.68;5.13;;;;;;;;;;6105011;23;20020;-77
2023/09/10 07:48:31;;;;;;;7.95;5.72;;;;;;;;;;6105085;23;20002;-77
2023/09/10 07:50:59;;;;;;;6.57;5.40;;;28.50;66.50;;;;;;6095180;23;20010;-77
2023/09/10 07:53:26;;;;;;;7.80;5.95;;;;;;;;;;6095405;23;20005;-77
2023/09/10 07:55:53;;;;;;;6.32;5.72;;;;;;;;;;6095103;23;20002;-77
2023/09/10 07:58:19;;;;;;;8.75;5.82;;;;;;;;;;6095814;23;20006;-78
2023/09/10 08:00:46;;;;;;;6.20;5.60;;;;;;;;;;6095184;23;20446;-78
2023/09/10 08:03:14;;;;;;;6.22;5.63;;;;;;;;;;6095188;23;20118;-78
2023/09/10 08:05:41;;;;;;;7.22;6.00;;;;;;;;;;6095558;23;20006;-77
2023/09/10 08:08:08;;;;;;;10.05;6.00;;;;;;;;;;6095301;23;20009;-78
2023/09/10 08:10:34;;;;;;;5.93;5.43;;;;;;;;;;6095514;23;20015;-77
2023/09/10 08:13:01;;;;;;;7.18;5.95;;;;;;;;;;6104842;23;19999;-78
2023/09/10 08:15:27;;;;;;;6.10;5.60;;;;;;;;;;6104982;23;20006;-78
2023/09/10 08:17:55;;;;;;;6.32;5.72;;;28.60;68.90;;;;;;6104805;23;20041;-78
2023/09/10 08:20:21;;;;;;;7.75;6.00;;;;;;;;;;6104935;23;19998;-78
2023/09/10 08:22:47;;;;;;;7.72;6.05;;;;;;;;;;6104679;23;20002;-78
2023/09/10 08:25:13;;;;;;;7.30;6.60;;;;;;;;;;6104916;23;19998;-78
2023/09/10 08:27:39;;;;;;;7.53;6.28;;;;;;;;;;6105473;23;20029;-78
2023/09/10 08:30:07;;;;;;;7.78;6.68;;;28.70;69.40;;;;;;6093133;23;20010;-78
2023/09/10 08:32:33;;;;;;;6.55;5.57;;;;;;;;;;6104967;23;19998;-78
2023/09/10 08:35:00;;;;;;;6.63;5.93;;;;;;;;;;6104467;23;20440;-78
2023/09/10 08:37:26;;;;;;;8.07;6.55;;;;;;;;;;6104884;23;19999;-78
2023/09/10 08:39:52;;;;;;;7.22;6.53;;;;;;;;;;6104849;23;20033;-78
2023/09/10 08:42:25;;;;;;;6.93;5.85;;;28.80;69.90;;;;;;6104732;23;20054;-78
2023/09/10 08:44:59;;;;;;;8.07;6.25;;;28.80;70.00;;;;;;6104922;23;20382;-78
2023/09/10 08:47:26;;;;;;;9.23;6.28;;;;;;;;;;6095364;23;19998;-77
2023/09/10 08:49:59;;;;;;;7.25;6.55;;;28.90;70.10;;;;;;6095323;23;20081;-78
2023/09/10 08:52:26;;;;;;;6.50;5.90;;;;;;;;;;6093848;23;20015;-77
2023/09/10 08:54:53;;;;;;;8.25;7.35;;;;;;;;;;6094971;23;20031;-77
2023/09/10 08:57:19;;;;;;;6.95;6.00;;;;;;;;;;6095432;23;20337;-78
2023/09/10 08:59:48;;;;;;;6.65;6.03;;;29.10;70.40;;;;;;6095406;23;20006;-77
2023/09/10 09:02:14;;;;;;;7.25;6.55;;;;;;;;;;6093748;23;20069;-78
2023/09/10 09:04:41;;;;;;;7.35;6.65;;;;;;;;;;6094701;23;20003;-78
2023/09/10 09:07:12;;;;;;;6.82;6.15;;;29.10;70.30;;;;;;6095251;23;20006;-78
2023/09/10 09:09:44;;;;;;;6.70;5.95;;;29.20;70.50;;;;;;6093718;23;19995;-77
2023/09/10 09:12:12;;;;;;;7.22;6.53;;;29.20;70.30;;;;;;6094774;23;20006;-77
2023/09/10 09:14:42;;;;;;;6.80;6.10;;;;;;;;;;6093898;23;20002;-77
2023/09/10 09:17:12;;;;;;;7.10;6.25;;;;;;;;;;6095297;23;20058;-78
2023/09/10 09:19:45;;;;;;;6.97;5.80;;;29.30;70.90;;;;;;6094735;23;20454;-78
2023/09/10 09:22:12;;;;;;;7.15;6.45;;;;;;;;;;6093662;23;20434;-79
2023/09/10 09:24:40;;;;;;;6.47;5.88;;;;;;;;;;6095018;23;19999;-79
2023/09/10 09:27:07;;;;;;;5.80;5.30;;;29.40;66.40;;;;;;6095686;23;20202;-74
2023/09/10 09:29:34;;;;;;;6.97;6.32;;;;;;;;;;6095413;23;20376;-75
2023/09/10 09:32:00;;;;;;;6.68;6.07;;;;;;;;;;6095424;23;20021;-75
2023/09/10 09:34:26;;;;;;;5.95;5.38;;;;;;;;;;6095806;23;20009;-75
2023/09/10 09:36:53;;;;;;;6.25;5.68;;;;;;;;;;6096554;23;20045;-73
2023/09/10 09:39:20;;;;;;;7.75;5.72;;;;;;;;;;6096459;23;19998;-72
2023/09/10 09:41:54;;;;;;;6.32;5.53;;;29.70;63.10;;;;;;6097084;23;20003;-74
2023/09/10 09:44:20;;;;;;;6.22;5.65;;;;;;;;;;6096755;23;19999;-72
2023/09/10 09:46:55;;;;;;;6.03;5.43;;;29.70;63.10;;;;;;6096428;23;20036;-72
2023/09/10 09:49:21;;;;;;;6.10;5.50;;;;;;;;;;6094982;23;19999;-72
2023/09/10 09:51:47;;;;;;;6.03;5.50;;;;;;;;;;6106221;23;20058;-73
2023/09/10 09:54:18;;;;;;;5.70;5.20;;;;;;;;;;6096501;23;19998;-80
2023/09/10 09:56:46;;;;;;;5.82;5.32;;;;;;;;;;6106577;23;20075;-80
2023/09/10 09:59:13;;;;;;;5.95;5.35;;;;;;;;;;6096767;23;20030;-80
2023/09/10 10:01:39;;;;;;;6.32;5.82;;;;;;;;;;6096744;23;20074;-80
2023/09/10 10:04:06;;;;;;;6.45;5.55;;;;;;;;;;6096389;23;20591;-79
2023/09/10 10:06:33;;;;;;;6.20;5.60;;;;;;;;;;6096595;23;20275;-80
2023/09/10 10:09:01;;;;;;;6.00;5.50;;;30.30;68.70;;;;;;6096813;23;20002;-80
2023/09/10 10:11:31;;;;;;;6.07;5.47;;;30.30;68.80;;;;;;6096252;23;20013;-80
2023/09/10 10:13:59;;;;;;;6.70;5.68;;;30.50;68.80;;;;;;6096652;23;20319;-72
2023/09/10 10:16:28;;;;;;;6.22;5.72;;;30.50;68.90;;;;;;6096179;23;19998;-72
2023/09/10 10:18:55;;;;;;;6.20;5.60;;;30.60;68.60;;;;;;6096247;23;20062;-73
2023/09/10 10:21:24;;;;;;;6.05;5.45;;;30.60;63.00;;;;;;6106095;23;20012;-73
2023/09/10 10:23:56;;;;;;;5.80;5.30;;;30.70;63.00;;;;;;6106276;23;19998;-73
2023/09/10 10:26:23;;;;;;;5.57;5.07;;;30.70;68.60;;;;;;6105963;23;20558;-73
2023/09/10 10:28:49;;;;;;;5.43;5.03;;;;;;;;;;6105894;23;20030;-73
2023/09/10 10:31:22;;;;;;;5.60;5.10;;;;;;;;;;6096013;23;20018;-77
2023/09/10 10:33:51;;;;;;;5.63;5.13;;;;;;;;;;6096234;23;20003;-76
2023/09/10 10:36:32;;;;;;;5.65;5.15;;;30.90;68.70;;;;;;6096098;23;20355;-78
2023/09/10 10:39:00;;;;;;;5.22;4.72;;;31.10;66.60;;;;;;6106234;23;19999;-76
2023/09/10 10:41:29;;;;;;;5.47;5.00;;;31.10;68.40;;;;;;6096313;23;20002;-77
2023/09/10 10:44:07;;;;;;;5.55;4.82;;;31.20;68.40;;;;;;6095774;23;20464;-76
2023/09/10 10:46:33;;;;;;;5.85;5.13;;;;;;;;;;6096304;23;20025;-75
2023/09/10 10:49:03;;;;;;;5.40;4.80;;;31.30;68.00;;;;;;6105677;23;20434;-71
2023/09/10 10:51:30;;;;;;;5.43;4.93;;;31.40;67.90;;;;;;6105704;23;20109;-72
2023/09/10 10:53:57;;;;;;;5.75;4.65;;;;;;;;;;6105563;23;19999;-72
2023/09/10 10:56:22;;;;;;;7.07;5.43;;;;;;;;;;6105633;23;20042;-75
2023/09/10 10:58:48;;;;;;;5.30;4.88;;;;;;;;;;6105339;23;20375;-73
2023/09/10 11:01:15;;;;;;;5.50;5.00;;;;;;;;;;6105473;23;20078;-72
2023/09/10 11:03:44;;;;;;;7.53;5.10;;;31.60;67.50;;;;;;6105360;23;20423;-72
2023/09/10 11:06:10;;;;;;;5.72;5.25;;;;;;;;;;6105709;23;20040;-73
2023/09/10 11:08:36;;;;;;;5.70;5.15;;;;;;;;;;6105384;23;19999;-72
2023/09/10 11:11:04;;;;;;;5.75;4.53;;;31.80;67.30;;;;;;6105303;23;20037;-72
2023/09/10 11:13:32;;;;;;;5.45;4.80;;;32.00;65.50;;;;;;6105515;23;20005;-72
2023/09/10 11:16:03;;;;;;;4.95;4.55;;;32.00;61.70;;;;;;6105375;23;20025;-73
2023/09/10 11:18:35;;;;;;;5.13;4.63;;;32.00;61.70;;;;;;6105201;23;19995;-72
2023/09/10 11:21:02;;;;;;;5.05;4.65;;;32.10;67.20;;;;;;6105296;23;20069;-72
2023/09/10 11:23:28;;;;;;;5.97;5.13;;;;;;;;;;6105402;23;20002;-73
2023/09/10 11:26:14;;;;;;;4.90;4.38;;;;;;;;;;6105285;23;19999;-75
2023/09/10 11:28:49;;;;;;;5.30;4.80;;;32.20;67.10;;;;;;6105116;23;20312;-76
2023/09/10 11:31:33;;;;;;;4.60;4.20;;;;;;;;;;6093732;23;20017;-78
2023/09/10 11:34:18;;;;;;;5.00;4.40;;;;;;;;;;6104780;23;20013;-79
2023/09/10 11:36:44;;;;;;;7.43;4.30;;;;;;;;;;6095095;23;20014;-79
2023/09/10 11:39:11;;;;;;;5.65;4.88;;;32.40;66.80;;;;;;6095606;23;20331;-80
2023/09/10 11:41:38;;;;;;;6.05;4.07;;;;;;;;;;6095307;23;19999;-79
2023/09/10 11:44:04;;;;;;;4.95;4.50;;;;;;;;;;6096039;23;20006;-73
2023/09/10 11:46:31;;;;;;;4.40;4.10;;;;;;;;;;6095643;23;20010;-73
2023/09/10 11:48:58;;;;;;;6.68;4.25;;;;;;;;;;6095215;23;20007;-73
2023/09/10 11:51:24;;;;;;;4.35;3.97;;;;;;;;;;6095211;23;20020;-73
2023/09/10 11:53:51;;;;;;;4.00;3.70;;;;;;;;;;6095531;23;20408;-79
2023/09/10 11:56:17;;;;;;;6.32;4.28;;;;;;;;;;6095051;23;20334;-79
2023/09/10 11:58:44;;;;;;;5.07;4.13;;;;;;;;;;6095616;23;20003;-79
2023/09/10 12:01:10;;;;;;;4.03;3.72;;;;;;;;;;6104768;23;20049;-79
2023/09/10 12:03:36;;;;;;;4.93;4.13;;;;;;;;;;6103530;23;19999;-79
2023/09/10 12:06:02;;;;;;;4.60;4.20;;;;;;;;;;6104873;23;20001;-80
2023/09/10 12:08:28;;;;;;;5.35;4.53;;;;;;;;;;6104954;23;20003;-80
2023/09/10 12:11:00;;;;;;;5.10;3.72;;;33.20;66.20;;;;;;6105323;23;20525;-73
2023/09/10 12:13:27;;;;;;;4.18;3.85;;;;;;;;;;6105030;23;20002;-73
2023/09/10 12:15:53;;;;;;;4.47;4.03;;;;;;;;;;6103345;23;20037;-73
2023/09/10 12:18:21;;;;;;;5.38;3.85;;;33.20;65.80;;;;;;6104944;23;19998;-73
2023/09/10 12:20:47;;;;;;;4.35;3.70;;;;;;;;;;6104964;23;20029;-73
2023/09/10 12:23:14;;;;;;;3.95;3.55;;;;;;;;;;6104911;23;20005;-73
2023/09/10 12:25:40;;;;;;;4.18;3.88;;;;;;;;;;6104884;23;20003;-73
2023/09/10 12:28:09;;;;;;;4.20;3.45;;;33.40;64.10;;;;;;6095253;23;20535;-73
2023/09/10 12:30:36;;;;;;;4.40;3.97;;;33.70;66.10;;;;;;6104797;23;20021;-73
2023/09/10 12:33:02;;;;;;;5.22;3.55;;;;;;;;;;6104693;23;20065;-73
2023/09/10 12:35:28;;;;;;;5.47;3.65;;;;;;;;;;6104539;23;20030;-73
2023/09/10 12:37:55;;;;;;;3.80;3.50;;;;;;;;;;6104829;23;20005;-73
2023/09/10 12:40:21;;;;;;;4.00;3.65;;;;;;;;;;6105199;23;20026;-73
2023/09/10 12:42:50;;;;;;;4.05;3.33;;;33.80;62.80;;;;;;6095212;23;20375;-73
2023/09/10 12:45:17;;;;;;;3.58;3.28;;;;;;;;;;6104622;23;20004;-73
2023/09/10 12:47:43;;;;;;;3.97;3.40;;;;;;;;;;6104846;23;19999;-73
2023/09/10 12:50:10;;;;;;;4.13;3.35;;;;;;;;;;6104549;23;20001;-73
2023/09/10 12:52:41;;;;;;;4.05;3.50;;;;;;;;;;6104769;23;20454;-79
2023/09/10 12:55:29;;;;;;;3.78;3.47;;;34.00;65.00;;;;;;6086436;23;20025;-80
2023/09/10 12:57:56;;;;;;;4.22;3.38;;;;;;;;;;6093370;23;20452;-80
2023/09/10 13:00:23;;;;;;;3.78;3.47;;;34.20;62.70;;;;;;6104531;23;20030;-79
2023/09/10 13:02:49;;;;;;;4.25;3.53;;;;;;;;;;6103062;23;20069;-79
2023/09/10 13:05:15;;;;;;;4.75;3.47;;;;;;;;;;6104491;23;20366;-79
2023/09/10 13:07:50;;;;;;;3.85;3.55;;;34.30;64.30;;;;;;6095750;23;20487;-73
2023/09/10 13:10:17;;;;;;;6.25;3.38;;;;;;;;;;6096857;23;20381;-73
2023/09/10 13:12:45;;;;;;;3.50;3.20;;;34.30;64.10;;;;;;6106332;23;20003;-73
2023/09/10 13:15:11;;;;;;;3.60;3.30;;;;;;;;;;6106325;23;20001;-73
2023/09/10 13:17:37;;;;;;;4.82;3.58;;;;;;;;;;6106403;23;20005;-73
2023/09/10 13:20:03;;;;;;;4.15;3.65;;;;;;;;;;6106423;23;20032;-73
2023/09/10 13:22:30;;;;;;;4.28;3.75;;;;;;;;;;6106348;23;20002;-73
2023/09/10 13:24:55;;;;;;;4.07;3.33;;;;;;;;;;6106381;23;20077;-73
2023/09/10 13:27:22;;;;;;;3.95;3.65;;;;;;;;;;6106365;23;20026;-73
2023/09/10 13:29:48;;;;;;;4.20;3.67;;;34.30;61.20;;;;;;6106340;23;20303;-73
2023/09/10 13:32:14;;;;;;;3.85;3.55;;;;;;;;;;6106237;23;20107;-73
2023/09/10 13:34:41;;;;;;;4.32;3.92;;;34.70;64.40;;;;;;6106147;23;20517;-74
2023/09/10 13:37:07;;;;;;;4.68;3.58;;;;;;;;;;6096881;23;20327;-80
2023/09/10 13:39:34;;;;;;;4.43;3.80;;;;;;;;;;6094780;23;19998;-80
2023/09/10 13:42:00;;;;;;;4.47;4.07;;;34.60;62.10;;;;;;6106083;23;20053;-80
2023/09/10 13:44:26;;;;;;;3.20;3.00;;;;;;;;;;6106057;23;19998;-80
2023/09/10 13:46:53;;;;;;;3.90;3.50;;;;;;;;;;6106092;23;19999;-79
2023/09/10 13:49:19;;;;;;;3.90;3.60;;;;;;;;;;6096315;23;20002;-79
2023/09/10 13:51:46;;;;;;;4.05;3.70;;;;;;;;;;6096170;23;20021;-79
2023/09/10 13:54:12;;;;;;;3.55;3.28;;;;;;;;;;6096222;23;20002;-79
2023/09/10 13:56:39;;;;;;;3.78;3.45;;;;;;;;;;6096443;23;20026;-79
2023/09/10 13:59:06;;;;;;;3.92;3.50;;;;;;;;;;6096134;23;20086;-79
2023/09/10 14:01:33;;;;;;;4.03;3.50;;;;;;;;;;6096188;23;20054;-79
2023/09/10 14:04:00;;;;;;;4.20;3.75;;;34.50;63.20;;;;;;6096484;23;20062;-79
2023/09/10 14:06:26;;;;;;;3.25;3.00;;;;;;;;;;6096985;23;20010;-79
2023/09/10 14:08:53;;;;;;;3.90;3.60;;;;;;;;;;6096083;23;20005;-79
2023/09/10 14:11:19;;;;;;;4.07;3.75;;;;;;;;;;6096303;23;20022;-79
2023/09/10 14:13:46;;;;;;;3.30;3.10;;;;;;;;;;6096317;23;20008;-79
2023/09/10 14:16:12;;;;;;;3.33;3.13;;;;;;;;;;6096459;23;20029;-79
2023/09/10 14:18:40;;;;;;;3.97;3.50;;;;;;;;;;6095987;23;20426;-79